Portada
METAR-TAF:

METAR-TAF

Aeropuertos :

Aeropuerto Internacional de Kuwait

Ciudad de Kuwait, Kuwait

latitud: 29-13N, longitud: 047-59E, altitud: 55 m

Observación

El informe se hizo hace 39 minutos, a las 23:00 UTC
Viento 3 kt del norte-noroeste
Temperatura 29°C
Humedad 25%
Presión 1008 hPa
Visibilidad 10 km o más
sin nubes por debajo de 1500 m y sin presencia de cumulonimbus.

METAR: OKBK 242300Z 33003KT CAVOK 29/07 Q1008 NOSIG

Hora: 02:39 (23:39 UTC)

Pronóstico

El informe se hizo hace 54 minutos, a las 22:45 UTC
Pronóstico válido del 25 a las 00 UTC al 26 a las 06 UTC
Viento 10 kt del norte con ráfagas de 20 kt
Visibilidad: 7000 m
Temporalmente
del 25 a las 00 UTC al 25 a las 14 UTC
Visibilidad: 4000 m
Ventisca alta de polvo

TAF: OKBK 242245Z 2500/2606 35010G20KT 7000 NSC TEMPO 2500/2514 4000 BLDU

Observaciones y pronósticos meteorológicos de más de 4000 aeropuertos (mensajes METAR y TAF).

Los puntos amarillos y rojos representan las estaciones disponibles.

Ponga el ratón en el punto deseado para ver el nombre de la estación.

Haga clic para ver las observaciones y los pronósticos meteorológicos.

Para cambiar el mapa : haga clic en los botones verdes con una cruz de color negro para hacer un zoom, en el botón verde con un guión para alejar o en las flechas verdes para mapas adyacentes.


METAR-TAF: